tititudorancea.com
Station Historical Data
Daily Summary for July 29, 2018 Units:  Metric    English   Both
« Previous Day
Next Day »
Daily Weekly Monthly Yearly Custom
  High: Low: Average:
Temperature: -17.8 °C 6.2 °C 8.4 °C
Dew Point: -17.8 °C 3.6 °C 5.2 °C
Humidity: Humidity % 67 % 80 %
Wind Speed: 0 km/h 5.6 km/h 21.6 km/h
Wind Gust: 0 km/h - -
Wind:- - WNW
Pressure: 0 hPa 998.9 hPa -
Precipitation: 2.29 mm    
Historical Graphs
 
 
Ararat weather Find more about Weather in Ararat, AU


 



 


Tabular Data for July 29, 2018
Time Temperature Dew Point Pressure Wind Wind Speed Wind Gust Humidity Rainfall Rate (Hourly)
-17.8 °C -17.8 °C 0 hPa Calm     Humidity % 0 mm
00:04 11.1 °C 9.3 °C 1001.2 hPa NNE 18.5 km/h 10.8 km/h 89 % 0 mm
00:09 11.1 °C 9.3 °C 1001.2 hPa NNE 14.5 km/h 13.5 km/h 89 % 0 mm
00:14 11.1 °C 9.3 °C 1001.2 hPa NNE 16.7 km/h 11.9 km/h 89 % 0 mm
00:19 11.1 °C 9.2 °C 1001.2 hPa NNE 18.5 km/h 13.2 km/h 88 % 0 mm
00:24 11.1 °C 9.2 °C 1000.9 hPa NNE 18.5 km/h 6.4 km/h 88 % 0 mm
00:29 11 °C 9.1 °C 1000.9 hPa NNE 7.4 km/h 5.5 km/h 88 % 0 mm
00:34 10.9 °C 9.1 °C 1000.9 hPa North 13 km/h 8.2 km/h 88 % 0 mm
00:39 10.9 °C 9.1 °C 1000.9 hPa North 13 km/h 7.2 km/h 88 % 0 mm
00:44 10.9 °C 9 °C 1000.6 hPa North 13 km/h 9.2 km/h 88 % 0 mm
00:49 10.9 °C 9.2 °C 1000.6 hPa North 20.9 km/h 13.2 km/h 89 % 0 mm
00:54 10.9 °C 9 °C 1000.6 hPa North 13 km/h 8.7 km/h 88 % 0 mm
00:59 10.9 °C 9 °C 1000.6 hPa North 14.8 km/h 9.3 km/h 88 % 0 mm
01:04 10.9 °C 9 °C 1000.6 hPa NNE 16.7 km/h 13 km/h 88 % 0 mm
01:09 10.9 °C 9 °C 1000.2 hPa North 14.8 km/h 7.7 km/h 88 % 0 mm
01:14 10.9 °C 9 °C 1000.2 hPa North 18.5 km/h 8 km/h 88 % 0 mm
01:19 10.9 °C 9 °C 1000.2 hPa North 16.7 km/h 9.8 km/h 88 % 0 mm
01:24 10.8 °C 8.9 °C 1000.2 hPa North 14.8 km/h 8.7 km/h 88 % 0 mm
01:29 10.8 °C 8.9 °C 999.9 hPa North 11.1 km/h 5.3 km/h 88 % 0 mm
01:34 10.8 °C 8.9 °C 999.9 hPa North 16.7 km/h 8.4 km/h 88 % 0 mm
01:39 10.8 °C 8.9 °C 999.5 hPa North 20.4 km/h 15.3 km/h 88 % 0 mm
01:44 10.8 °C 8.9 °C 999.5 hPa North 18.5 km/h 8.2 km/h 88 % 0 mm
01:49 10.8 °C 8.9 °C 999.5 hPa North 18.5 km/h 9.5 km/h 88 % 0 mm
01:54 10.8 °C 8.9 °C 999.9 hPa North 22.2 km/h 10.9 km/h 88 % 0 mm
01:59 10.9 °C 8.8 °C 999.5 hPa North 16.7 km/h 9.2 km/h 87 % 0 mm
02:04 10.9 °C 8.9 °C 999.5 hPa North 18.5 km/h 10.1 km/h 87 % 0 mm
02:09 10.9 °C 8.8 °C 999.5 hPa North 16.7 km/h 9.8 km/h 87 % 0 mm
02:14 10.9 °C 8.8 °C 999.9 hPa North 18.5 km/h 9.7 km/h 87 % 0 mm
02:19 10.8 °C 8.8 °C 999.5 hPa North 13 km/h 6.9 km/h 87 % 0 mm
02:24 10.8 °C 8.7 °C 999.5 hPa NNW 18.5 km/h 14.3 km/h 87 % 0 mm
02:29 10.7 °C 8.6 °C 999.5 hPa NNW 16.7 km/h 10.9 km/h 87 % 0 mm
02:34 10.6 °C 8.6 °C 999.5 hPa NW 14.8 km/h 10.9 km/h 87 % 0 mm
02:39 10.6 °C 8.5 °C 999.5 hPa NW 24.1 km/h 16.9 km/h 87 % 0 mm
02:44 10.6 °C 8.2 °C 999.5 hPa NW 19.3 km/h 16.4 km/h 85 % 0 mm
02:49 10.8 °C 8 °C 999.5 hPa North 27.8 km/h 19.6 km/h 83 % 0 mm
02:54 10.8 °C 7.9 °C 999.2 hPa NW 25.9 km/h 15.3 km/h 82 % 0 mm
02:59 10.8 °C 7.8 °C 999.2 hPa NW 27.8 km/h 17.1 km/h 82 % 0 mm
03:04 10.6 °C 7.8 °C 999.5 hPa NW 27.4 km/h 15.3 km/h 83 % 0.25 mm
03:09 10.2 °C 7.8 °C 999.2 hPa WNW 22.5 km/h 14.8 km/h 85 % 0.25 mm
03:14 10 °C 7.8 °C 999.2 hPa NW 16.7 km/h 10.5 km/h 86 % 0.25 mm
03:19 9.9 °C 7.7 °C 999.2 hPa NW 29 km/h 16.3 km/h 86 % 0.25 mm
03:24 10 °C 7.8 °C 999.2 hPa North 25.9 km/h 18 km/h 86 % 0.25 mm
03:29 10.2 °C 7.8 °C 999.2 hPa WNW 22.5 km/h 18.5 km/h 85 % 0.25 mm
03:34 10.3 °C 7.7 °C 999.2 hPa NW 27.8 km/h 19.3 km/h 84 % 0.25 mm
03:39 10.3 °C 7.7 °C 999.2 hPa NW 33.3 km/h 18 km/h 84 % 0.25 mm
03:44 10.3 °C 7.7 °C 999.2 hPa NW 27.4 km/h 23 km/h 84 % 0.25 mm
03:49 10.2 °C 7.4 °C 999.2 hPa NW 37 km/h 19.2 km/h 83 % 0.25 mm
03:54 10.1 °C 7.2 °C 999.2 hPa WNW 33.3 km/h 26.4 km/h 82 % 0.25 mm
03:59 10.1 °C 7 °C 999.2 hPa WNW 37 km/h 24.6 km/h 81 % 0.25 mm
04:04 10.1 °C 6.8 °C 999.2 hPa WNW 33.3 km/h 19.3 km/h 80 % 0 mm
04:09 9.9 °C 6.6 °C 998.9 hPa NW 42.6 km/h 25.9 km/h 80 % 0 mm
04:14 9.9 °C 6.4 °C 998.9 hPa North 14.8 km/h 12.9 km/h 79 % 0 mm
04:19 9.8 °C 6.4 °C 998.9 hPa NW 22.5 km/h 14.2 km/h 79 % 0 mm
04:24 9.8 °C 6.3 °C 998.9 hPa NW 24.1 km/h 10.8 km/h 79 % 0 mm
04:29 9.7 °C 6.2 °C 998.9 hPa NW 20.4 km/h 18 km/h 79 % 0 mm
04:34 9.7 °C 6.2 °C 999.2 hPa North 22.2 km/h 17.7 km/h 79 % 0 mm
04:39 9.6 °C 6.1 °C 999.2 hPa WNW 22.5 km/h 17.5 km/h 79 % 0 mm
04:44 9.5 °C 6.2 °C 999.5 hPa NW 19.3 km/h 13.4 km/h 80 % 0 mm
04:49 9.4 °C 6.2 °C 999.5 hPa NW 24.1 km/h 17.9 km/h 80 % 0 mm
04:54 9.4 °C 6.2 °C 999.5 hPa North 24.1 km/h 19.8 km/h 80 % 0 mm
04:59 9.4 °C 6.3 °C 999.5 hPa NW 29.6 km/h 21.7 km/h 81 % 0 mm
05:04 9.1 °C 6.3 °C 999.5 hPa North 31.5 km/h 20.6 km/h 83 % 0 mm
05:09 8.9 °C 6.3 °C 999.9 hPa WNW 25.7 km/h 19.3 km/h 84 % 0.25 mm
05:14 8.7 °C 6.3 °C 999.9 hPa WNW 30.6 km/h 21.1 km/h 85 % 0.25 mm
05:19 8.5 °C 6.3 °C 999.5 hPa WNW 27.8 km/h 16.3 km/h 86 % 0.25 mm
05:24 8.3 °C 6.1 °C 999.9 hPa West 24.1 km/h 16.3 km/h 86 % 0.25 mm
05:29 8.3 °C 5.9 °C 999.9 hPa WNW 33.8 km/h 22.4 km/h 85 % 0.25 mm
05:34 8.2 °C 5.8 °C 1000.2 hPa WNW 24.1 km/h 21.9 km/h 85 % 0.25 mm
05:39 8.2 °C 5.8 °C 1000.2 hPa WNW 25.9 km/h 14.3 km/h 85 % 0.25 mm
05:44 8.2 °C 5.6 °C 1000.2 hPa WNW 25.9 km/h 19 km/h 84 % 0.25 mm
05:49 8.2 °C 5.4 °C 1000.6 hPa WNW 24.1 km/h 15.6 km/h 83 % 0.25 mm
05:54 8.1 °C 5.3 °C 1000.6 hPa WNW 32.2 km/h 19.6 km/h 83 % 0.25 mm
05:59 8.1 °C 5.3 °C 1000.6 hPa West 22.2 km/h 14.3 km/h 83 % 0.25 mm
06:04 8 °C 5.3 °C 1000.6 hPa West 18.5 km/h 13.2 km/h 83 % 0.25 mm
06:09 8 °C 5.3 °C 1000.9 hPa West 16.7 km/h 11.9 km/h 83 % 0 mm
06:14 8.1 °C 5.2 °C 1000.9 hPa WNW 19.3 km/h 17.2 km/h 82 % 0 mm
06:19 8.1 °C 5.3 °C 1000.9 hPa WNW 14.8 km/h 6.4 km/h 83 % 0 mm
06:24 8 °C 5.1 °C 1000.9 hPa WNW 16.7 km/h 12.2 km/h 82 % 0 mm
06:29 7.9 °C 5.1 °C 1000.9 hPa WNW 22.2 km/h 13.4 km/h 82 % 0 mm
06:34 8 °C 5.1 °C 1000.9 hPa North 25.9 km/h 21.1 km/h 82 % 0 mm
06:39 8 °C 4.9 °C 1000.9 hPa NW 18.5 km/h 16.6 km/h 81 % 0 mm
06:44 7.9 °C 4.7 °C 1001.2 hPa North 18.5 km/h 12.6 km/h 80 % 0 mm
06:49 8 °C 4.8 °C 1001.2 hPa North 18.5 km/h 12.9 km/h 80 % 0 mm
06:54 7.9 °C 4.5 °C 1001.2 hPa West 20.9 km/h 13.8 km/h 79 % 0 mm
06:59 8.1 °C 4.6 °C 1001.6 hPa WNW 25.9 km/h 14.6 km/h 79 % 0 mm
07:04 8.1 °C 4.4 °C 1001.6 hPa West 18.5 km/h 14.5 km/h 78 % 0 mm
07:09 8 °C 4.4 °C 1001.6 hPa NW 25.7 km/h 14.8 km/h 78 % 0 mm
07:14 8 °C 4.2 °C 1001.6 hPa WNW 18.5 km/h 10.1 km/h 77 % 0 mm
07:19 7.9 °C 4.2 °C 1001.9 hPa WNW 14.8 km/h 12.1 km/h 77 % 0 mm
07:24 7.8 °C 4 °C 1001.9 hPa West 18.5 km/h 8.2 km/h 77 % 0 mm
07:29 7.8 °C 3.8 °C 1001.9 hPa North 18.5 km/h 12.9 km/h 76 % 0 mm
07:34 7.8 °C 3.9 °C 1001.9 hPa NW 16.7 km/h 11.4 km/h 76 % 0 mm
07:39 7.9 °C 3.9 °C 1002.3 hPa NW 13 km/h 9.2 km/h 76 % 0 mm
07:44 7.8 °C 4 °C 1002.3 hPa NW 16.7 km/h 13.2 km/h 77 % 0 mm
07:49 7.8 °C 4 °C 1002.3 hPa NW 18.5 km/h 13.2 km/h 77 % 0 mm
07:54 7.7 °C 4.1 °C 1002.6 hPa North 16.1 km/h 8.7 km/h 78 % 0 mm
07:59 7.6 °C 4.2 °C 1002.6 hPa NNW 18.5 km/h 6.8 km/h 79 % 0 mm
08:04 7.6 °C 4.3 °C 1002.6 hPa NNW 9.7 km/h 5.6 km/h 80 % 0 mm
08:09 7.6 °C 4.3 °C 1002.6 hPa NW 14.8 km/h 9 km/h 80 % 0 mm
08:14 7.5 °C 4.4 °C 1002.6 hPa NW 11.1 km/h 6.4 km/h 81 % 0 mm
08:19 7.4 °C 4.4 °C 1002.6 hPa NW 16.7 km/h 7.6 km/h 81 % 0 mm
08:24 7.5 °C 4.4 °C 1002.6 hPa NW 18.5 km/h 10.3 km/h 81 % 0 mm
08:29 7.6 °C 4.6 °C 1002.6 hPa North 17.7 km/h 12.4 km/h 81 % 0 mm
08:34 7.7 °C 4.7 °C 1002.9 hPa NNW 18.5 km/h 13.7 km/h 81 % 0 mm
08:39 7.7 °C 4.7 °C 1002.9 hPa NNW 14.8 km/h 12.9 km/h 81 % 0 mm
08:44 7.7 °C 4.6 °C 1002.9 hPa NW 18.5 km/h 18.5 km/h 81 % 0 mm
08:49 7.7 °C 4.9 °C 1002.9 hPa North 18.5 km/h 8.7 km/h 83 % 0 mm
08:54 7.6 °C 4.8 °C 1003.3 hPa North 16.7 km/h 11.9 km/h 83 % 0 mm
08:59 7.5 °C 4.9 °C 1003.3 hPa North 18.5 km/h 10.8 km/h 84 % 0 mm
09:04 7.4 °C 5.1 °C 1003.6 hPa North 11.1 km/h 6 km/h 85 % 0 mm
09:09 7.5 °C 5.3 °C 1003.6 hPa NW 13 km/h 8.5 km/h 86 % 0 mm
09:14 7.7 °C 5.5 °C 1003.6 hPa NW 9.7 km/h 6.6 km/h 86 % 0 mm
09:19 7.7 °C 5.3 °C 1003.6 hPa NW 14.8 km/h 10.8 km/h 85 % 0 mm
09:24 7.8 °C 5.4 °C 1003.6 hPa NW 5.6 km/h 4.2 km/h 85 % 0 mm
09:29 7.8 °C 5.4 °C 1003.6 hPa NNW 14.8 km/h 9.2 km/h 85 % 0 mm
09:34 7.6 °C 5.4 °C 1003.6 hPa North 13 km/h 8 km/h 86 % 0 mm
09:39 7.4 °C 5.4 °C 1003.6 hPa North 13 km/h 7.4 km/h 87 % 0.25 mm
09:44 7.4 °C 5.4 °C 1003.6 hPa North 5.6 km/h 4.3 km/h 87 % 0.25 mm
09:49 7.4 °C 5.6 °C 1003.9 hPa North 11.1 km/h 6.9 km/h 88 % 0.25 mm
09:54 7.5 °C 5.5 °C 1003.9 hPa WNW 18.5 km/h 14 km/h 87 % 0.25 mm
09:59 7.6 °C 5.4 °C 1003.9 hPa NW 16.7 km/h 10.3 km/h 86 % 0.25 mm
10:04 7.7 °C 5.3 °C 1003.9 hPa NW 18.5 km/h 14.5 km/h 85 % 0.25 mm
10:09 7.9 °C 5.3 °C 1003.9 hPa NW 17.7 km/h 13.5 km/h 84 % 0.25 mm
10:14 7.9 °C 5.4 °C 1004.3 hPa WNW 24.1 km/h 12.1 km/h 84 % 0.25 mm
10:19 8 °C 5.4 °C 1004.3 hPa North 18.5 km/h 10.6 km/h 84 % 0.25 mm
10:24 8 °C 5.3 °C 1004.6 hPa WNW 25.9 km/h 16.4 km/h 83 % 0.25 mm
10:29 8 °C 5.3 °C 1004.3 hPa WNW 27.8 km/h 15.3 km/h 83 % 0.25 mm
10:34 8.1 °C 5.2 °C 1004.3 hPa NW 24.1 km/h 17.2 km/h 82 % 0.25 mm
10:39 8.3 °C 5.2 °C 1004.3 hPa WNW 22.2 km/h 17.1 km/h 81 % 0 mm
10:44 8.7 °C 5.4 °C 1004.3 hPa WNW 14.8 km/h 12.7 km/h 80 % 0 mm
10:49 8.8 °C 5 °C 1004.3 hPa WNW 29.6 km/h 16.1 km/h 77 % 0 mm
10:54 9.1 °C 5.1 °C 1004.6 hPa WNW 18.5 km/h 10.3 km/h 76 % 0 mm
10:59 9.2 °C 4.8 °C 1004.6 hPa WNW 22.2 km/h 16.7 km/h 74 % 0 mm
11:04 9.3 °C 4.7 °C 1004.6 hPa NW 27.4 km/h 19.6 km/h 73 % 0 mm
11:09 9.1 °C 4.5 °C 1004.6 hPa NW 22.2 km/h 19.6 km/h 73 % 0 mm
11:14 9.4 °C 4.8 °C 1004.6 hPa WNW 27.4 km/h 19.8 km/h 73 % 0 mm
11:19 9.5 °C 4.7 °C 1004.6 hPa WNW 25.9 km/h 19.8 km/h 72 % 0 mm
11:24 9.6 °C 4.6 °C 1004.6 hPa NW 31.5 km/h 25.1 km/h 71 % 0 mm
11:29 9.7 °C 4.4 °C 1004.6 hPa NW 24.1 km/h 16.6 km/h 70 % 0 mm
11:34 9.7 °C 4.4 °C 1004.6 hPa WNW 33.3 km/h 18.3 km/h 70 % 0 mm
11:39 9.8 °C 4.8 °C 1004.6 hPa WNW 24.1 km/h 15.6 km/h 71 % 0 mm
11:44 9.9 °C 4.7 °C 1004.3 hPa West 24.1 km/h 15 km/h 70 % 0 mm
11:49 9.9 °C 4.9 °C 1004.3 hPa NW 18.5 km/h 17.7 km/h 71 % 0 mm
11:54 10.1 °C 4.7 °C 1004.6 hPa WNW 29.6 km/h 22.7 km/h 69 % 0 mm
11:59 10.2 °C 4.7 °C 1004.6 hPa WNW 24.1 km/h 20.4 km/h 69 % 0 mm
12:04 10.2 °C 5 °C 1004.6 hPa WNW 18.5 km/h 13 km/h 70 % 0 mm
12:09 10.2 °C 5.3 °C 1004.6 hPa West 20.4 km/h 16.7 km/h 72 % 0 mm
12:14 10.1 °C 5.3 °C 1004.6 hPa North 18.5 km/h 14.3 km/h 72 % 0 mm
12:19 10.3 °C 5.1 °C 1004.6 hPa North 25.9 km/h 14.6 km/h 70 % 0 mm
12:24 10.8 °C 5.6 °C 1004.6 hPa West 22.5 km/h 14.3 km/h 70 % 0 mm
12:29 11.1 °C 5.4 °C 1004.6 hPa WNW 18.5 km/h 12.6 km/h 68 % 0 mm
12:34 10.9 °C 5.4 °C 1004.6 hPa WNW 30.6 km/h 22.2 km/h 69 % 0 mm
12:39 10.4 °C 4.8 °C 1004.6 hPa North 35.2 km/h 21.6 km/h 68 % 0 mm
12:44 10.6 °C 5.2 °C 1004.3 hPa WNW 16.7 km/h 14 km/h 69 % 0 mm
12:49 10.6 °C 4.7 °C 1004.3 hPa WNW 27.8 km/h 18 km/h 67 % 0 mm
12:54 10.4 °C 4.6 °C 1004.3 hPa North 31.5 km/h 21.9 km/h 67 % 0 mm
12:59 10.2 °C 4.5 °C 1004.6 hPa West 27.8 km/h 17.9 km/h 68 % 0 mm
13:04 9.4 °C 4.1 °C 1005 hPa North 37 km/h 28.2 km/h 69 % 0.25 mm
13:08 8.7 °C 4.1 °C 1005.3 hPa North 35.2 km/h 22 km/h 73 % 0.51 mm
13:19 7.2 °C 4.2 °C 1005.3 hPa West 35.2 km/h 23.7 km/h 81 % 0.51 mm
13:24 7.2 °C 4.4 °C 1005 hPa West 27.8 km/h 18.5 km/h 83 % 0.51 mm
13:29 7.7 °C 5 °C 1005 hPa West 31.5 km/h 19.3 km/h 83 % 0.51 mm
13:34 8.2 °C 5.4 °C 1005 hPa West 27.4 km/h 19.6 km/h 83 % 0.51 mm
13:39 8.3 °C 5.1 °C 1005 hPa WSW 27.8 km/h 16.1 km/h 80 % 0.51 mm
13:44 8.4 °C 4.8 °C 1005 hPa WSW 25.9 km/h 21.7 km/h 78 % 0.51 mm
13:49 8.8 °C 4.9 °C 1005 hPa West 27.4 km/h 22.2 km/h 77 % 1.27 mm
13:54 8.9 °C 4.7 °C 1005.3 hPa WNW 24.1 km/h 20.8 km/h 75 % 1.27 mm
13:59 8.9 °C 4.7 °C 1005.3 hPa West 25.9 km/h 13.8 km/h 75 % 1.27 mm
14:04 8.7 °C 4.6 °C 1005.6 hPa North 46.3 km/h 28.8 km/h 75 % 1.27 mm
14:09 8.2 °C 4.7 °C 1005.6 hPa North 31.5 km/h 29 km/h 79 % 1.27 mm
14:14 8.4 °C 5.3 °C 1005.6 hPa North 33.3 km/h 22.9 km/h 81 % 1.02 mm
14:19 8.9 °C 5.6 °C 1005.6 hPa West 40.7 km/h 18.2 km/h 80 % 0.51 mm
14:24 9.1 °C 5.4 °C 1005.6 hPa SW 33.8 km/h 26.4 km/h 78 % 0.51 mm
14:29 9.2 °C 4.8 °C 1005.6 hPa West 31.5 km/h 24.3 km/h 74 % 0.51 mm
14:34 9.5 °C 5.3 °C 1005.6 hPa WSW 32.2 km/h 20.9 km/h 75 % 0.51 mm
14:39 9.3 °C 4.7 °C 1006 hPa North 29.6 km/h 17.4 km/h 73 % 0.51 mm
14:44 9.1 °C 4.1 °C 1005.6 hPa West 38.9 km/h 29.1 km/h 71 % 0.76 mm
14:49 9 °C 4.2 °C 1006 hPa WSW 35.2 km/h 27.5 km/h 72 % 0.25 mm
14:54 8.9 °C 4.4 °C 1006 hPa West 22.5 km/h 20.9 km/h 73 % 0.25 mm
14:59 9.1 °C 4.7 °C 1006 hPa West 14.8 km/h 7.4 km/h 74 % 0.25 mm
15:04 9 °C 4 °C 1006 hPa West 33.8 km/h 23.7 km/h 71 % 0.25 mm
15:09 8.8 °C 4.1 °C 1006.3 hPa West 27.8 km/h 18.3 km/h 72 % 0.25 mm
15:14 8.9 °C 4.2 °C 1006.3 hPa West 29 km/h 27.7 km/h 72 % 0.25 mm
15:19 8.9 °C 3.9 °C 1006 hPa West 27.8 km/h 19.3 km/h 71 % 0.25 mm
15:24 9.2 °C 4.2 °C 1006.3 hPa West 31.5 km/h 22.4 km/h 71 % 0.25 mm
15:29 9.3 °C 4.1 °C 1006.3 hPa West 35.2 km/h 24 km/h 70 % 0.25 mm
15:34 9.3 °C 4.1 °C 1006.7 hPa West 25.9 km/h 17.7 km/h 70 % 0.25 mm
15:39 9.1 °C 3.9 °C 1006.7 hPa WNW 31.5 km/h 19.3 km/h 70 % 0.25 mm
15:44 9 °C 4.2 °C 1006.7 hPa North 31.5 km/h 24.1 km/h 72 % 0 mm
15:49 9.2 °C 4.2 °C 1006.7 hPa WNW 18.5 km/h 15.4 km/h 71 % 0 mm
15:54 9 °C 4.2 °C 1006.7 hPa West 42.6 km/h 19 km/h 72 % 0 mm
15:59 8.9 °C 4.9 °C 1006.7 hPa West 31.5 km/h 20.6 km/h 76 % 0 mm
16:04 9 °C 4 °C 1007 hPa West 35.2 km/h 23 km/h 71 % 0 mm
16:09 9.1 °C 3.9 °C 1007 hPa WSW 25.9 km/h 22.7 km/h 70 % 0 mm
16:14 8.8 °C 3.6 °C 1007.3 hPa North 35.2 km/h 28.2 km/h 70 % 0 mm
16:19 8.4 °C 3.6 °C 1007.3 hPa North 35.2 km/h 25.6 km/h 72 % 0 mm
16:24 8.1 °C 3.8 °C 1007.3 hPa North 31.5 km/h 20 km/h 74 % 0 mm
16:29 8 °C 3.8 °C 1007.3 hPa North 20.4 km/h 17.2 km/h 75 % 0 mm
16:34 7.9 °C 3.9 °C 1007.7 hPa West 22.5 km/h 17.5 km/h 76 % 0 mm
16:39 7.9 °C 4.3 °C 1008 hPa North 37 km/h 20.1 km/h 78 % 0 mm
16:44 7.7 °C 4.1 °C 1008 hPa North 27.8 km/h 23 km/h 78 % 0 mm
16:49 7.6 °C 4.2 °C 1008 hPa West 33.3 km/h 13.2 km/h 79 % 0 mm
16:54 7.6 °C 4.5 °C 1008 hPa WSW 18.5 km/h 12.2 km/h 81 % 0 mm
16:59 7.6 °C 4.5 °C 1008 hPa WSW 18.5 km/h 12.2 km/h 81 % 0 mm
17:04 7.6 °C 4.5 °C 1008 hPa WSW 20.4 km/h 10.9 km/h 81 % 0 mm
17:09 7.6 °C 4.5 °C 1008 hPa North 18.5 km/h 11.9 km/h 81 % 0 mm
17:14 7.4 °C 4.2 °C 1008 hPa West 22.2 km/h 21.9 km/h 80 % 0 mm
17:19 7.6 °C 4.2 °C 1008.4 hPa West 25.9 km/h 18.8 km/h 79 % 0 mm
17:24 7.6 °C 4.2 °C 1008.4 hPa North 18.5 km/h 12.1 km/h 79 % 0 mm
17:29 7.4 °C 4.1 °C 1008.4 hPa West 20.4 km/h 19 km/h 79 % 0 mm
17:34 7.6 °C 4 °C 1008.4 hPa West 24.1 km/h 19.5 km/h 78 % 0 mm
17:39 7.6 °C 4 °C 1008.4 hPa North 19.3 km/h 18 km/h 78 % 0 mm
17:44 7.6 °C 3.8 °C 1008.7 hPa West 18.5 km/h 15.1 km/h 77 % 0 mm
17:49 7.6 °C 3.9 °C 1008.7 hPa West 18.5 km/h 14.5 km/h 78 % 0 mm
17:54 7.6 °C 4 °C 1009 hPa West 16.7 km/h 12.6 km/h 78 % 0 mm
17:59 7.7 °C 4.1 °C 1009 hPa West 31.5 km/h 22.2 km/h 78 % 0 mm
18:04 7.9 °C 4.1 °C 1009 hPa North 31.5 km/h 22.5 km/h 77 % 0 mm
18:09 7.9 °C 3.9 °C 1009 hPa West 33.3 km/h 18.5 km/h 76 % 0 mm
18:14 7.9 °C 3.9 °C 1009.4 hPa West 25.7 km/h 18.7 km/h 76 % 0 mm
18:19 7.9 °C 3.9 °C 1009.4 hPa West 29.6 km/h 20.3 km/h 76 % 0 mm
18:24 7.8 °C 3.9 °C 1009.7 hPa West 33.3 km/h 24.1 km/h 76 % 0 mm
18:29 7.7 °C 3.8 °C 1009.7 hPa West 22.2 km/h 13.4 km/h 76 % 0 mm
18:34 7.6 °C 3.8 °C 1009.7 hPa West 16.1 km/h 13.5 km/h 77 % 0 mm
18:39 7.6 °C 3.9 °C 1009.7 hPa West 16.7 km/h 16.3 km/h 78 % 0 mm
18:44 7.7 °C 4.1 °C 1009.7 hPa West 25.9 km/h 10.9 km/h 78 % 0 mm
18:49 7.6 °C 4 °C 1009.7 hPa North 25.9 km/h 23.7 km/h 78 % 0 mm
18:54 7.5 °C 4.1 °C 1010 hPa West 24.1 km/h 21.9 km/h 79 % 0 mm
18:59 7.4 °C 4.1 °C 1010 hPa WNW 31.5 km/h 20.9 km/h 79 % 0 mm
19:04 7.3 °C 3.9 °C 1010 hPa West 24.1 km/h 16.6 km/h 79 % 0 mm
19:09 7.3 °C 3.9 °C 1010 hPa West 22.2 km/h 18.7 km/h 79 % 0 mm
19:14 7.2 °C 3.7 °C 1010 hPa West 18.5 km/h 10.1 km/h 78 % 0 mm
19:19 7.2 °C 3.6 °C 1010.4 hPa West 18.5 km/h 14.8 km/h 78 % 0 mm
19:24 7.2 °C 3.6 °C 1010.4 hPa West 18.5 km/h 8.2 km/h 78 % 0 mm
19:29 7.2 °C 3.7 °C 1010.4 hPa WSW 12.9 km/h 10.5 km/h 78 % 0 mm
19:34 7.3 °C 3.7 °C 1010.7 hPa WSW 16.7 km/h 9.5 km/h 78 % 0 mm
19:39 7.2 °C 3.8 °C 1010.7 hPa WSW 22.2 km/h 12.7 km/h 79 % 0 mm
19:44 7.3 °C 3.9 °C 1011.1 hPa West 20.9 km/h 18.2 km/h 79 % 0 mm
19:49 7.3 °C 3.9 °C 1011.1 hPa North 14.8 km/h 11.7 km/h 79 % 0 mm
19:54 7.2 °C 3.8 °C 1011.1 hPa West 13 km/h 9.8 km/h 79 % 0 mm
19:59 7.1 °C 3.9 °C 1011.4 hPa West 9.3 km/h 4.3 km/h 80 % 0 mm
20:04 7.1 °C 3.9 °C 1011.4 hPa West 7.4 km/h 5.5 km/h 80 % 0 mm
20:09 7.2 °C 3.8 °C 1011.4 hPa North 9.3 km/h 9 km/h 79 % 0 mm
20:14 7.3 °C 3.7 °C 1011.4 hPa West 13 km/h 8.5 km/h 78 % 0 mm
20:19 7.3 °C 3.7 °C 1011.7 hPa WNW 7.4 km/h 6.8 km/h 78 % 0 mm
20:24 7.2 °C 3.7 °C 1011.7 hPa North 11.1 km/h 8.5 km/h 78 % 0 mm
20:29 7.2 °C 3.8 °C 1011.7 hPa WNW 18.5 km/h 10.6 km/h 79 % 0 mm
20:34 7.2 °C 3.8 °C 1011.7 hPa West 18.5 km/h 12.4 km/h 79 % 0 mm
20:39 7.3 °C 4.1 °C 1011.7 hPa North 16.7 km/h 13 km/h 80 % 0 mm
20:44 7.3 °C 3.9 °C 1011.4 hPa West 20.4 km/h 13.5 km/h 79 % 0 mm
20:49 7.2 °C 3.8 °C 1011.4 hPa West 29.6 km/h 16.1 km/h 79 % 0 mm
20:54 7.2 °C 3.8 °C 1011.4 hPa West 18.5 km/h 11.3 km/h 79 % 0 mm
20:59 7.2 °C 4 °C 1011.4 hPa West 16.7 km/h 12.1 km/h 80 % 0 mm
21:04 7.2 °C 4 °C 1011.7 hPa West 20.4 km/h 12.1 km/h 80 % 0 mm
21:09 7.2 °C 4.2 °C 1011.7 hPa North 13 km/h 9.7 km/h 81 % 0 mm
21:14 7.1 °C 4.1 °C 1012.1 hPa WSW 20.4 km/h 15.1 km/h 81 % 0 mm
21:19 7.1 °C 4.2 °C 1012.1 hPa WSW 20.4 km/h 11.6 km/h 82 % 0 mm
21:24 7.1 °C 4.2 °C 1012.1 hPa West 20.4 km/h 11.9 km/h 82 % 0 mm
21:29 7.1 °C 4.2 °C 1012.4 hPa WSW 14.8 km/h 11.3 km/h 82 % 0 mm
21:34 7 °C 4.3 °C 1012.1 hPa West 27.8 km/h 16.9 km/h 83 % 0 mm
21:39 6.9 °C 4.2 °C 1012.1 hPa WSW 18.5 km/h 10.1 km/h 83 % 0 mm
21:44 6.8 °C 4.3 °C 1012.4 hPa West 24.1 km/h 13.4 km/h 84 % 0 mm
21:49 6.7 °C 4.2 °C 1012.4 hPa West 11.1 km/h 8 km/h 84 % 0 mm
21:54 6.7 °C 4.2 °C 1012.4 hPa West 13 km/h 10 km/h 84 % 0 mm
21:59 6.7 °C 4.2 °C 1012.4 hPa WSW 16.1 km/h 11.9 km/h 84 % 0 mm
22:04 6.7 °C 4.2 °C 1012.4 hPa North 14.8 km/h 8.4 km/h 84 % 0 mm
22:09 6.7 °C 4.2 °C 1012.4 hPa West 11.3 km/h 6.1 km/h 84 % 0 mm
22:14 6.7 °C 4.2 °C 1012.4 hPa WSW 13 km/h 9.8 km/h 84 % 0 mm
22:19 6.8 °C 4.3 °C 1012.4 hPa North 18.5 km/h 14.8 km/h 84 % 0 mm
22:24 6.7 °C 4.4 °C 1012.8 hPa WSW 12.9 km/h 11.1 km/h 85 % 0.25 mm
22:29 6.7 °C 4.3 °C 1012.8 hPa WSW 14.8 km/h 12.4 km/h 85 % 0.25 mm
22:34 6.6 °C 4.4 °C 1012.8 hPa WSW 11.1 km/h 6.6 km/h 86 % 0.25 mm
22:39 6.4 °C 4.3 °C 1012.8 hPa North 11.1 km/h 10.5 km/h 86 % 0.25 mm
22:44 6.4 °C 4.2 °C 1012.8 hPa WSW 13 km/h 6.6 km/h 86 % 0.25 mm
22:49 6.3 °C 4.2 °C 1012.8 hPa WSW 14.8 km/h 6.1 km/h 86 % 0.25 mm
22:54 6.2 °C 4.1 °C 1012.8 hPa WSW 8 km/h 7.7 km/h 86 % 0.25 mm
22:59 6.3 °C 4.1 °C 1012.8 hPa WSW 9.7 km/h 9.7 km/h 86 % 0.25 mm
23:04 6.3 °C 4.2 °C 1012.8 hPa WSW 11.1 km/h 8.4 km/h 86 % 0.25 mm
23:09 6.4 °C 4.3 °C 1012.8 hPa WSW 14.8 km/h 9 km/h 86 % 0.25 mm
23:14 6.5 °C 4.3 °C 1012.8 hPa WSW 11.1 km/h 8 km/h 86 % 0.25 mm
23:19 6.5 °C 4.2 °C 1012.8 hPa WSW 11.1 km/h 8.7 km/h 85 % 0.25 mm
23:24 6.4 °C 4.1 °C 1012.8 hPa North 18.5 km/h 15.3 km/h 85 % 0 mm
23:29 6.4 °C 3.9 °C 1012.8 hPa WSW 18.5 km/h 8.4 km/h 84 % 0 mm
23:34 6.4 °C 3.9 °C 1012.8 hPa WSW 14.5 km/h 11.1 km/h 84 % 0 mm
23:39 6.5 °C 4 °C 1012.8 hPa West 16.7 km/h 9 km/h 84 % 0 mm
23:44 6.6 °C 4.1 °C 1013.1 hPa West 11.1 km/h 9 km/h 84 % 0 mm
23:49 6.6 °C 4.1 °C 1013.1 hPa WSW 18.5 km/h 13.7 km/h 84 % 0 mm
23:54 6.7 °C 4.2 °C 1013.1 hPa West 14.8 km/h 8.2 km/h 84 % 0 mm
23:59 6.7 °C 4.2 °C 1013.4 hPa West 13 km/h 8.7 km/h 84 % 0 mm
Ararat Weather
Compliments of Weather Underground - 2.25 mb
Click here to send mail.


ABOUT

Live weather data from Ararat, Victoria, Australia, 3377
Data uploaded from Cumulus every 5 minutes to Weather Underground.
This site then downloads the raw data for formatting and display.
Metric and imperial data can be displayed. Graphs and historical data available.
Includes Sun and Moon times and rain image live from BOM.

Check out Ararat Weather on Facebook, Twitter and Google +

Help support ongoing costs by checking out the ads





Follow @AraratWeather